sensor_id;sensor_type;location;lat;lon;timestamp;pressure;altitude;pressure_sealevel;temperature;humidity
52949;BME280;38812;50.942;3.644;2023-04-05T00:01:29;102507.03;;;0.08;100.00
52949;BME280;38812;50.942;3.644;2023-04-05T00:03:55;102484.75;;;-0.08;100.00
52949;BME280;38812;50.942;3.644;2023-04-05T00:06:22;102498.09;;;0.02;100.00
52949;BME280;38812;50.942;3.644;2023-04-05T00:08:53;102486.84;;;-0.01;100.00
52949;BME280;38812;50.942;3.644;2023-04-05T00:11:20;102495.91;;;0.09;100.00
52949;BME280;38812;50.942;3.644;2023-04-05T00:13:47;102495.59;;;0.03;100.00
52949;BME280;38812;50.942;3.644;2023-04-05T00:16:12;102502.94;;;-0.06;100.00
52949;BME280;38812;50.942;3.644;2023-04-05T00:18:38;102490.75;;;-0.09;100.00
52949;BME280;38812;50.942;3.644;2023-04-05T00:21:04;102480.47;;;-0.07;100.00
52949;BME280;38812;50.942;3.644;2023-04-05T00:23:29;102489.84;;;-0.09;100.00
52949;BME280;38812;50.942;3.644;2023-04-05T00:26:01;102478.09;;;-0.20;100.00
52949;BME280;38812;50.942;3.644;2023-04-05T00:28:27;102481.22;;;-0.27;100.00
52949;BME280;38812;50.942;3.644;2023-04-05T00:30:52;102475.16;;;-0.28;100.00
52949;BME280;38812;50.942;3.644;2023-04-05T00:33:17;102475.91;;;-0.30;100.00
52949;BME280;38812;50.942;3.644;2023-04-05T00:35:43;102472.34;;;-0.32;100.00
52949;BME280;38812;50.942;3.644;2023-04-05T00:38:08;102478.03;;;-0.40;100.00
52949;BME280;38812;50.942;3.644;2023-04-05T00:40:34;102463.66;;;-0.35;100.00
52949;BME280;38812;50.942;3.644;2023-04-05T00:43:00;102463.34;;;-0.41;100.00
52949;BME280;38812;50.942;3.644;2023-04-05T00:45:25;102466.94;;;-0.55;100.00
52949;BME280;38812;50.942;3.644;2023-04-05T00:47:51;102467.75;;;-0.56;100.00
52949;BME280;38812;50.942;3.644;2023-04-05T00:50:16;102461.53;;;-0.59;100.00
52949;BME280;38812;50.942;3.644;2023-04-05T00:52:42;102467.44;;;-0.62;100.00
52949;BME280;38812;50.942;3.644;2023-04-05T00:55:09;102475.09;;;-0.63;100.00
52949;BME280;38812;50.942;3.644;2023-04-05T00:57:34;102469.56;;;-0.71;100.00
52949;BME280;38812;50.942;3.644;2023-04-05T01:00:04;102465.22;;;-0.72;100.00
52949;BME280;38812;50.942;3.644;2023-04-05T01:02:37;102460.06;;;-0.72;100.00
52949;BME280;38812;50.942;3.644;2023-04-05T01:08:31;102463.94;;;-0.80;100.00
52949;BME280;38812;50.942;3.644;2023-04-05T01:11:02;102463.13;;;-0.79;100.00
52949;BME280;38812;50.942;3.644;2023-04-05T01:13:29;102463.69;;;-0.85;100.00
52949;BME280;38812;50.942;3.644;2023-04-05T01:15:55;102450.72;;;-0.86;100.00
52949;BME280;38812;50.942;3.644;2023-04-05T01:18:20;102442.16;;;-0.85;100.00
52949;BME280;38812;50.942;3.644;2023-04-05T01:20:52;102440.66;;;-0.98;100.00
52949;BME280;38812;50.942;3.644;2023-04-05T01:23:32;102447.94;;;-0.91;100.00
52949;BME280;38812;50.942;3.644;2023-04-05T01:32:02;102440.91;;;-0.42;100.00
52949;BME280;38812;50.942;3.644;2023-04-05T01:34:46;102434.44;;;-0.33;100.00
52949;BME280;38812;50.942;3.644;2023-04-05T01:37:17;102435.31;;;-0.51;100.00
52949;BME280;38812;50.942;3.644;2023-04-05T01:39:43;102438.22;;;-0.61;100.00
52949;BME280;38812;50.942;3.644;2023-04-05T01:42:11;102426.44;;;-0.74;100.00
52949;BME280;38812;50.942;3.644;2023-04-05T01:44:37;102419.50;;;-0.75;100.00
52949;BME280;38812;50.942;3.644;2023-04-05T01:47:02;102421.91;;;-0.78;100.00
52949;BME280;38812;50.942;3.644;2023-04-05T01:49:28;102400.75;;;-0.88;100.00
52949;BME280;38812;50.942;3.644;2023-04-05T01:51:53;102415.78;;;-0.80;100.00
52949;BME280;38812;50.942;3.644;2023-04-05T01:54:19;102403.19;;;-0.91;100.00
52949;BME280;38812;50.942;3.644;2023-04-05T01:56:44;102407.94;;;-0.99;100.00
52949;BME280;38812;50.942;3.644;2023-04-05T01:59:10;102418.00;;;-0.87;100.00
52949;BME280;38812;50.942;3.644;2023-04-05T02:01:35;102408.59;;;-0.69;100.00
52949;BME280;38812;50.942;3.644;2023-04-05T02:04:01;102386.34;;;-0.67;100.00
52949;BME280;38812;50.942;3.644;2023-04-05T02:06:27;102411.69;;;-0.76;100.00
52949;BME280;38812;50.942;3.644;2023-04-05T02:08:52;102390.72;;;-0.82;100.00
52949;BME280;38812;50.942;3.644;2023-04-05T02:11:17;102394.41;;;-0.95;100.00
52949;BME280;38812;50.942;3.644;2023-04-05T02:13:43;102400.28;;;-0.97;100.00
52949;BME280;38812;50.942;3.644;2023-04-05T02:16:08;102398.09;;;-1.06;100.00
52949;BME280;38812;50.942;3.644;2023-04-05T02:18:35;102391.06;;;-1.10;100.00
52949;BME280;38812;50.942;3.644;2023-04-05T02:21:07;102390.28;;;-1.08;100.00
52949;BME280;38812;50.942;3.644;2023-04-05T02:23:35;102394.06;;;-1.01;100.00
52949;BME280;38812;50.942;3.644;2023-04-05T02:26:01;102391.56;;;-0.99;100.00
52949;BME280;38812;50.942;3.644;2023-04-05T02:28:26;102384.03;;;-1.13;100.00
52949;BME280;38812;50.942;3.644;2023-04-05T02:30:52;102386.22;;;-1.20;100.00
52949;BME280;38812;50.942;3.644;2023-04-05T02:33:17;102385.81;;;-1.28;100.00
52949;BME280;38812;50.942;3.644;2023-04-05T02:35:43;102379.84;;;-1.27;100.00
52949;BME280;38812;50.942;3.644;2023-04-05T02:38:08;102382.50;;;-1.25;100.00
52949;BME280;38812;50.942;3.644;2023-04-05T02:40:34;102371.66;;;-1.36;100.00
52949;BME280;38812;50.942;3.644;2023-04-05T02:43:00;102379.72;;;-1.30;100.00
52949;BME280;38812;50.942;3.644;2023-04-05T02:45:25;102363.13;;;-1.51;100.00
52949;BME280;38812;50.942;3.644;2023-04-05T02:47:52;102368.59;;;-1.45;100.00
52949;BME280;38812;50.942;3.644;2023-04-05T02:50:17;102372.94;;;-1.44;100.00
52949;BME280;38812;50.942;3.644;2023-04-05T02:52:45;102369.41;;;-1.46;100.00
52949;BME280;38812;50.942;3.644;2023-04-05T02:55:11;102362.47;;;-1.47;100.00
52949;BME280;38812;50.942;3.644;2023-04-05T02:57:37;102354.59;;;-1.50;100.00
52949;BME280;38812;50.942;3.644;2023-04-05T03:00:03;102372.50;;;-1.53;100.00
52949;BME280;38812;50.942;3.644;2023-04-05T03:02:29;102376.59;;;-1.57;100.00
52949;BME280;38812;50.942;3.644;2023-04-05T03:04:55;102385.13;;;-1.42;100.00
52949;BME280;38812;50.942;3.644;2023-04-05T03:07:20;102383.91;;;-1.48;100.00
52949;BME280;38812;50.942;3.644;2023-04-05T03:09:46;102375.38;;;-1.47;100.00
52949;BME280;38812;50.942;3.644;2023-04-05T03:12:12;102377.78;;;-1.50;100.00
52949;BME280;38812;50.942;3.644;2023-04-05T03:14:38;102372.94;;;-1.44;100.00
52949;BME280;38812;50.942;3.644;2023-04-05T03:17:03;102367.41;;;-1.52;100.00
52949;BME280;38812;50.942;3.644;2023-04-05T03:19:30;102367.19;;;-1.56;100.00
52949;BME280;38812;50.942;3.644;2023-04-05T03:21:56;102378.44;;;-1.54;100.00
52949;BME280;38812;50.942;3.644;2023-04-05T03:24:22;102365.66;;;-1.53;100.00
52949;BME280;38812;50.942;3.644;2023-04-05T03:26:48;102369.91;;;-1.69;100.00
52949;BME280;38812;50.942;3.644;2023-04-05T03:29:15;102374.88;;;-1.73;100.00
52949;BME280;38812;50.942;3.644;2023-04-05T03:31:40;102377.47;;;-1.73;100.00
52949;BME280;38812;50.942;3.644;2023-04-05T03:34:06;102380.69;;;-1.77;100.00
52949;BME280;38812;50.942;3.644;2023-04-05T03:36:31;102373.78;;;-1.78;100.00
52949;BME280;38812;50.942;3.644;2023-04-05T03:39:14;102368.28;;;-1.84;100.00
52949;BME280;38812;50.942;3.644;2023-04-05T03:41:40;102374.41;;;-1.65;100.00
52949;BME280;38812;50.942;3.644;2023-04-05T03:44:07;102373.13;;;-1.57;100.00
52949;BME280;38812;50.942;3.644;2023-04-05T03:46:33;102362.34;;;-1.66;100.00
52949;BME280;38812;50.942;3.644;2023-04-05T03:49:01;102376.34;;;-1.61;100.00
52949;BME280;38812;50.942;3.644;2023-04-05T03:51:26;102362.31;;;-1.50;100.00
52949;BME280;38812;50.942;3.644;2023-04-05T03:53:52;102367.16;;;-1.40;100.00
52949;BME280;38812;50.942;3.644;2023-04-05T03:56:18;102354.03;;;-1.45;100.00
52949;BME280;38812;50.942;3.644;2023-04-05T03:58:43;102349.09;;;-1.40;100.00
52949;BME280;38812;50.942;3.644;2023-04-05T04:01:09;102363.13;;;-1.35;100.00
52949;BME280;38812;50.942;3.644;2023-04-05T04:03:35;102349.50;;;-1.32;100.00
52949;BME280;38812;50.942;3.644;2023-04-05T04:06:05;102361.13;;;-1.41;100.00
52949;BME280;38812;50.942;3.644;2023-04-05T04:08:31;102353.66;;;-1.52;100.00
52949;BME280;38812;50.942;3.644;2023-04-05T04:10:56;102347.03;;;-1.63;100.00
52949;BME280;38812;50.942;3.644;2023-04-05T04:13:22;102349.88;;;-1.75;100.00
52949;BME280;38812;50.942;3.644;2023-04-05T04:15:47;102333.50;;;-1.92;100.00
52949;BME280;38812;50.942;3.644;2023-04-05T04:18:12;102341.31;;;-1.90;100.00
52949;BME280;38812;50.942;3.644;2023-04-05T04:20:38;102333.50;;;-1.92;100.00
52949;BME280;38812;50.942;3.644;2023-04-05T04:23:03;102342.38;;;-1.87;100.00
52949;BME280;38812;50.942;3.644;2023-04-05T04:25:30;102331.91;;;-1.90;100.00
52949;BME280;38812;50.942;3.644;2023-04-05T04:27:56;102337.72;;;-1.78;100.00
52949;BME280;38812;50.942;3.644;2023-04-05T04:30:21;102326.44;;;-1.96;100.00
52949;BME280;38812;50.942;3.644;2023-04-05T04:32:47;102338.50;;;-1.95;100.00
52949;BME280;38812;50.942;3.644;2023-04-05T04:35:17;102328.25;;;-2.10;100.00
52949;BME280;38812;50.942;3.644;2023-04-05T04:37:51;102336.88;;;-1.93;100.00
52949;BME280;38812;50.942;3.644;2023-04-05T04:40:20;102338.97;;;-1.86;100.00
52949;BME280;38812;50.942;3.644;2023-04-05T04:42:45;102319.91;;;-2.05;100.00
52949;BME280;38812;50.942;3.644;2023-04-05T04:45:15;102334.28;;;-2.09;100.00
52949;BME280;38812;50.942;3.644;2023-04-05T04:47:42;102338.56;;;-2.10;100.00
52949;BME280;38812;50.942;3.644;2023-04-05T04:50:08;102333.06;;;-2.16;100.00
52949;BME280;38812;50.942;3.644;2023-04-05T04:52:34;102339.19;;;-2.14;100.00
52949;BME280;38812;50.942;3.644;2023-04-05T04:55:00;102343.78;;;-2.24;100.00
52949;BME280;38812;50.942;3.644;2023-04-05T04:57:27;102349.97;;;-2.21;100.00
52949;BME280;38812;50.942;3.644;2023-04-05T04:59:52;102339.09;;;-2.15;100.00
52949;BME280;38812;50.942;3.644;2023-04-05T05:02:25;102345.88;;;-2.17;100.00
52949;BME280;38812;50.942;3.644;2023-04-05T05:04:51;102332.34;;;-2.13;100.00
52949;BME280;38812;50.942;3.644;2023-04-05T05:07:17;102326.09;;;-2.18;100.00
52949;BME280;38812;50.942;3.644;2023-04-05T05:09:43;102322.72;;;-2.17;100.00
52949;BME280;38812;50.942;3.644;2023-04-05T05:12:08;102322.06;;;-2.13;100.00
52949;BME280;38812;50.942;3.644;2023-04-05T05:14:34;102317.06;;;-2.10;100.00
52949;BME280;38812;50.942;3.644;2023-04-05T05:16:59;102332.22;;;-2.00;100.00
52949;BME280;38812;50.942;3.644;2023-04-05T05:19:25;102325.84;;;-1.90;100.00
52949;BME280;38812;50.942;3.644;2023-04-05T05:21:51;102333.84;;;-1.86;100.00
52949;BME280;38812;50.942;3.644;2023-04-05T05:24:18;102339.78;;;-1.87;100.00
52949;BME280;38812;50.942;3.644;2023-04-05T05:26:43;102346.63;;;-1.87;100.00
52949;BME280;38812;50.942;3.644;2023-04-05T05:29:09;102340.84;;;-1.67;100.00
52949;BME280;38812;50.942;3.644;2023-04-05T05:31:34;102337.66;;;-1.45;100.00
52949;BME280;38812;50.942;3.644;2023-04-05T05:34:00;102349.63;;;-1.29;100.00
52949;BME280;38812;50.942;3.644;2023-04-05T05:36:26;102337.44;;;-1.33;100.00
52949;BME280;38812;50.942;3.644;2023-04-05T05:38:52;102351.13;;;-1.34;100.00
52949;BME280;38812;50.942;3.644;2023-04-05T05:41:18;102347.91;;;-1.30;100.00
52949;BME280;38812;50.942;3.644;2023-04-05T05:43:45;102351.41;;;-1.28;100.00
52949;BME280;38812;50.942;3.644;2023-04-05T05:46:11;102346.97;;;-1.15;100.00
52949;BME280;38812;50.942;3.644;2023-04-05T05:48:36;102359.91;;;-0.97;100.00
52949;BME280;38812;50.942;3.644;2023-04-05T05:51:01;102361.50;;;-0.99;100.00
52949;BME280;38812;50.942;3.644;2023-04-05T05:53:27;102357.19;;;-0.82;100.00
52949;BME280;38812;50.942;3.644;2023-04-05T05:55:52;102367.72;;;-0.60;100.00
52949;BME280;38812;50.942;3.644;2023-04-05T05:58:18;102358.16;;;-0.45;100.00
52949;BME280;38812;50.942;3.644;2023-04-05T06:00:43;102357.97;;;-0.12;100.00
52949;BME280;38812;50.942;3.644;2023-04-05T06:03:09;102357.19;;;0.47;100.00
52949;BME280;38812;50.942;3.644;2023-04-05T06:05:35;102350.34;;;1.29;100.00
52949;BME280;38812;50.942;3.644;2023-04-05T06:08:01;102349.03;;;2.29;100.00
52949;BME280;38812;50.942;3.644;2023-04-05T06:10:28;102359.94;;;3.44;100.00
52949;BME280;38812;50.942;3.644;2023-04-05T06:12:54;102360.78;;;3.72;100.00
52949;BME280;38812;50.942;3.644;2023-04-05T06:15:20;102360.34;;;3.85;100.00
52949;BME280;38812;50.942;3.644;2023-04-05T06:17:45;102343.69;;;3.78;100.00
52949;BME280;38812;50.942;3.644;2023-04-05T06:20:11;102347.41;;;3.87;100.00
52949;BME280;38812;50.942;3.644;2023-04-05T06:22:39;102356.59;;;4.04;100.00
52949;BME280;38812;50.942;3.644;2023-04-05T06:25:06;102354.03;;;4.05;100.00
52949;BME280;38812;50.942;3.644;2023-04-05T06:27:32;102346.53;;;4.16;100.00
52949;BME280;38812;50.942;3.644;2023-04-05T06:29:59;102337.69;;;4.09;100.00
52949;BME280;38812;50.942;3.644;2023-04-05T06:32:24;102347.13;;;4.37;100.00
52949;BME280;38812;50.942;3.644;2023-04-05T06:34:50;102343.78;;;5.06;100.00
52949;BME280;38812;50.942;3.644;2023-04-05T06:37:15;102340.06;;;4.96;100.00
52949;BME280;38812;50.942;3.644;2023-04-05T06:39:40;102330.53;;;4.98;100.00
52949;BME280;38812;50.942;3.644;2023-04-05T06:42:06;102343.41;;;5.27;100.00
52949;BME280;38812;50.942;3.644;2023-04-05T06:44:31;102339.00;;;5.59;100.00
52949;BME280;38812;50.942;3.644;2023-04-05T06:46:57;102342.81;;;5.37;100.00
52949;BME280;38812;50.942;3.644;2023-04-05T06:49:22;102344.94;;;5.17;100.00
52949;BME280;38812;50.942;3.644;2023-04-05T06:51:48;102344.41;;;4.96;100.00
52949;BME280;38812;50.942;3.644;2023-04-05T06:54:13;102348.53;;;4.56;100.00
52949;BME280;38812;50.942;3.644;2023-04-05T06:56:39;102344.84;;;4.81;100.00
52949;BME280;38812;50.942;3.644;2023-04-05T06:59:05;102348.16;;;4.74;100.00
52949;BME280;38812;50.942;3.644;2023-04-05T07:01:30;102345.03;;;4.56;100.00
52949;BME280;38812;50.942;3.644;2023-04-05T07:03:55;102349.41;;;4.57;100.00
52949;BME280;38812;50.942;3.644;2023-04-05T07:06:21;102346.19;;;4.65;100.00
52949;BME280;38812;50.942;3.644;2023-04-05T07:08:48;102341.19;;;4.73;100.00
52949;BME280;38812;50.942;3.644;2023-04-05T07:11:14;102348.81;;;5.00;100.00
52949;BME280;38812;50.942;3.644;2023-04-05T07:13:39;102338.84;;;5.16;100.00
52949;BME280;38812;50.942;3.644;2023-04-05T07:16:05;102332.16;;;5.28;100.00
52949;BME280;38812;50.942;3.644;2023-04-05T07:18:31;102338.88;;;5.54;100.00
52949;BME280;38812;50.942;3.644;2023-04-05T07:20:58;102322.16;;;5.46;100.00
52949;BME280;38812;50.942;3.644;2023-04-05T07:23:28;102324.00;;;5.50;100.00
52949;BME280;38812;50.942;3.644;2023-04-05T07:25:54;102334.84;;;5.68;100.00
52949;BME280;38812;50.942;3.644;2023-04-05T07:28:19;102325.63;;;5.82;100.00
52949;BME280;38812;50.942;3.644;2023-04-05T07:30:45;102322.50;;;5.97;100.00
52949;BME280;38812;50.942;3.644;2023-04-05T07:33:10;102327.97;;;6.11;100.00
52949;BME280;38812;50.942;3.644;2023-04-05T07:35:36;102321.00;;;6.10;100.00
52949;BME280;38812;50.942;3.644;2023-04-05T07:38:02;102320.53;;;6.29;100.00
52949;BME280;38812;50.942;3.644;2023-04-05T07:40:27;102312.63;;;6.70;100.00
52949;BME280;38812;50.942;3.644;2023-04-05T07:42:53;102314.81;;;6.97;100.00
52949;BME280;38812;50.942;3.644;2023-04-05T07:45:18;102316.91;;;7.17;100.00
52949;BME280;38812;50.942;3.644;2023-04-05T07:47:44;102308.41;;;7.89;100.00
52949;BME280;38812;50.942;3.644;2023-04-05T07:50:10;102285.06;;;8.08;100.00
52949;BME280;38812;50.942;3.644;2023-04-05T07:52:39;102290.47;;;8.20;100.00
52949;BME280;38812;50.942;3.644;2023-04-05T07:55:06;102292.28;;;8.27;100.00
52949;BME280;38812;50.942;3.644;2023-04-05T07:57:32;102289.34;;;8.77;100.00
52949;BME280;38812;50.942;3.644;2023-04-05T07:59:57;102310.38;;;8.83;100.00
52949;BME280;38812;50.942;3.644;2023-04-05T08:02:23;102299.22;;;9.05;100.00
52949;BME280;38812;50.942;3.644;2023-04-05T08:04:48;102307.28;;;9.33;100.00
52949;BME280;38812;50.942;3.644;2023-04-05T08:07:13;102302.94;;;9.38;100.00
52949;BME280;38812;50.942;3.644;2023-04-05T08:09:39;102294.44;;;9.78;99.91
52949;BME280;38812;50.942;3.644;2023-04-05T08:12:05;102301.69;;;10.25;100.00
52949;BME280;38812;50.942;3.644;2023-04-05T08:14:30;102299.13;;;10.46;95.90
52949;BME280;38812;50.942;3.644;2023-04-05T08:16:56;102295.66;;;10.69;88.81
52949;BME280;38812;50.942;3.644;2023-04-05T08:19:21;102295.66;;;10.65;90.87
52949;BME280;38812;50.942;3.644;2023-04-05T08:21:46;102297.47;;;11.23;78.13
52949;BME280;38812;50.942;3.644;2023-04-05T08:24:12;102288.56;;;11.74;76.91
52949;BME280;38812;50.942;3.644;2023-04-05T08:26:37;102282.25;;;12.28;74.64
52949;BME280;38812;50.942;3.644;2023-04-05T08:29:03;102293.59;;;12.35;70.89
52949;BME280;38812;50.942;3.644;2023-04-05T08:31:29;102290.84;;;12.56;68.12
52949;BME280;38812;50.942;3.644;2023-04-05T08:33:54;102290.63;;;12.88;63.52
52949;BME280;38812;50.942;3.644;2023-04-05T08:36:20;102276.19;;;13.36;63.59
52949;BME280;38812;50.942;3.644;2023-04-05T08:38:45;102291.44;;;13.88;60.77
52949;BME280;38812;50.942;3.644;2023-04-05T08:41:18;102281.91;;;13.77;58.81
52949;BME280;38812;50.942;3.644;2023-04-05T08:46:21;102288.16;;;14.42;55.68
52949;BME280;38812;50.942;3.644;2023-04-05T08:48:46;102283.19;;;14.77;55.81
52949;BME280;38812;50.942;3.644;2023-04-05T08:51:12;102277.03;;;14.77;49.76
52949;BME280;38812;50.942;3.644;2023-04-05T08:53:37;102283.31;;;15.23;50.75
52949;BME280;38812;50.942;3.644;2023-04-05T08:56:03;102286.19;;;15.11;55.72
52949;BME280;38812;50.942;3.644;2023-04-05T08:58:31;102268.97;;;15.36;51.70
52949;BME280;38812;50.942;3.644;2023-04-05T09:00:59;102274.66;;;15.15;49.78
52949;BME280;38812;50.942;3.644;2023-04-05T09:03:33;102283.47;;;13.91;52.59
52949;BME280;38812;50.942;3.644;2023-04-05T09:06:04;102282.00;;;14.41;53.12
52949;BME280;38812;50.942;3.644;2023-04-05T09:08:31;102281.28;;;14.27;50.30
52949;BME280;38812;50.942;3.644;2023-04-05T09:10:57;102267.19;;;14.88;46.00
52949;BME280;38812;50.942;3.644;2023-04-05T09:13:22;102260.81;;;14.98;47.90
52949;BME280;38812;50.942;3.644;2023-04-05T09:15:47;102281.34;;;14.84;50.10
52949;BME280;38812;50.942;3.644;2023-04-05T09:18:13;102268.38;;;14.68;46.76
52949;BME280;38812;50.942;3.644;2023-04-05T09:20:38;102278.97;;;14.67;48.89
52949;BME280;38812;50.942;3.644;2023-04-05T09:23:04;102284.63;;;14.98;49.39
52949;BME280;38812;50.942;3.644;2023-04-05T09:25:34;102271.31;;;15.04;47.09
52949;BME280;38812;50.942;3.644;2023-04-05T09:28:01;102267.19;;;14.88;44.76
52949;BME280;38812;50.942;3.644;2023-04-05T09:30:30;102262.41;;;15.09;45.93
52949;BME280;38812;50.942;3.644;2023-04-05T09:32:57;102258.59;;;15.24;45.73
52949;BME280;38812;50.942;3.644;2023-04-05T09:35:24;102261.81;;;15.40;45.17
52949;BME280;38812;50.942;3.644;2023-04-05T09:37:51;102259.75;;;15.59;48.05
52949;BME280;38812;50.942;3.644;2023-04-05T09:40:20;102257.16;;;15.54;47.26
52949;BME280;38812;50.942;3.644;2023-04-05T09:42:47;102259.25;;;15.83;49.04
52949;BME280;38812;50.942;3.644;2023-04-05T09:45:17;102254.59;;;15.50;47.26
52949;BME280;38812;50.942;3.644;2023-04-05T09:47:56;102249.41;;;16.30;44.69
52949;BME280;38812;50.942;3.644;2023-04-05T09:50:22;102245.25;;;15.30;45.36
52949;BME280;38812;50.942;3.644;2023-04-05T09:52:48;102240.50;;;15.48;46.75
52949;BME280;38812;50.942;3.644;2023-04-05T09:55:24;102239.41;;;15.13;47.15
52949;BME280;38812;50.942;3.644;2023-04-05T09:57:51;102245.34;;;15.24;46.52
52949;BME280;38812;50.942;3.644;2023-04-05T10:00:20;102246.47;;;15.13;47.26
52949;BME280;38812;50.942;3.644;2023-04-05T10:02:46;102251.41;;;14.80;47.50
52949;BME280;38812;50.942;3.644;2023-04-05T10:05:12;102241.41;;;14.45;46.48
52949;BME280;38812;50.942;3.644;2023-04-05T10:07:40;102245.59;;;14.58;49.14
52949;BME280;38812;50.942;3.644;2023-04-05T10:10:06;102245.63;;;15.11;47.90
52949;BME280;38812;50.942;3.644;2023-04-05T10:12:32;102238.28;;;14.72;47.78
52949;BME280;38812;50.942;3.644;2023-04-05T10:14:58;102239.03;;;14.82;48.49
52949;BME280;38812;50.942;3.644;2023-04-05T10:17:27;102236.97;;;15.49;46.88
52949;BME280;38812;50.942;3.644;2023-04-05T10:20:14;102236.16;;;15.90;45.04
52949;BME280;38812;50.942;3.644;2023-04-05T10:22:47;102239.50;;;15.55;45.80
52949;BME280;38812;50.942;3.644;2023-04-05T10:30:46;102232.44;;;15.57;45.00
52949;BME280;38812;50.942;3.644;2023-04-05T10:33:19;102240.84;;;15.29;47.32
52949;BME280;38812;50.942;3.644;2023-04-05T10:38:23;102230.69;;;15.97;44.67
52949;BME280;38812;50.942;3.644;2023-04-05T10:40:54;102231.09;;;16.19;44.78
52949;BME280;38812;50.942;3.644;2023-04-05T10:43:24;102226.97;;;16.04;45.70
52949;BME280;38812;50.942;3.644;2023-04-05T10:45:52;102231.22;;;14.74;44.90
52949;BME280;38812;50.942;3.644;2023-04-05T10:50:56;102215.16;;;15.34;45.73
52949;BME280;38812;50.942;3.644;2023-04-05T10:53:24;102214.13;;;15.41;46.06
52949;BME280;38812;50.942;3.644;2023-04-05T10:55:49;102218.16;;;15.62;45.12
52949;BME280;38812;50.942;3.644;2023-04-05T10:58:15;102206.06;;;15.48;46.59
52949;BME280;38812;50.942;3.644;2023-04-05T11:00:41;102207.38;;;15.25;44.54
52949;BME280;38812;50.942;3.644;2023-04-05T11:03:06;102202.19;;;15.19;46.07
52949;BME280;38812;50.942;3.644;2023-04-05T11:05:35;102208.47;;;14.64;47.32
52949;BME280;38812;50.942;3.644;2023-04-05T11:08:06;102206.69;;;14.66;45.34
52949;BME280;38812;50.942;3.644;2023-04-05T11:10:36;102198.03;;;14.55;46.53
52949;BME280;38812;50.942;3.644;2023-04-05T11:13:04;102199.22;;;14.90;45.33
52949;BME280;38812;50.942;3.644;2023-04-05T11:15:30;102190.22;;;15.00;46.53
52949;BME280;38812;50.942;3.644;2023-04-05T11:18:20;102188.72;;;15.33;44.36
52949;BME280;38812;50.942;3.644;2023-04-05T11:20:51;102188.84;;;15.27;46.27
52949;BME280;38812;50.942;3.644;2023-04-05T11:23:19;102190.84;;;15.14;45.59
52949;BME280;38812;50.942;3.644;2023-04-05T11:25:53;102181.06;;;15.16;44.89
52949;BME280;38812;50.942;3.644;2023-04-05T11:30:50;102184.25;;;15.36;46.02
52949;BME280;38812;50.942;3.644;2023-04-05T11:36:31;102174.72;;;14.79;47.04
52949;BME280;38812;50.942;3.644;2023-04-05T11:44:23;102172.97;;;15.25;45.68
52949;BME280;38812;50.942;3.644;2023-04-05T11:46:50;102175.56;;;15.28;46.94
52949;BME280;38812;50.942;3.644;2023-04-05T11:49:16;102162.94;;;14.95;45.50
52949;BME280;38812;50.942;3.644;2023-04-05T11:51:42;102161.16;;;14.48;46.78
52949;BME280;38812;50.942;3.644;2023-04-05T11:54:10;102169.75;;;14.60;46.13
52949;BME280;38812;50.942;3.644;2023-04-05T11:56:36;102157.72;;;14.93;46.72
52949;BME280;38812;50.942;3.644;2023-04-05T11:59:02;102155.00;;;14.95;45.30
52949;BME280;38812;50.942;3.644;2023-04-05T12:01:27;102153.84;;;14.62;44.53
52949;BME280;38812;50.942;3.644;2023-04-05T12:03:54;102157.81;;;14.32;46.61
52949;BME280;38812;50.942;3.644;2023-04-05T12:06:24;102144.66;;;14.83;45.21
52949;BME280;38812;50.942;3.644;2023-04-05T12:08:50;102139.94;;;15.00;44.61
52949;BME280;38812;50.942;3.644;2023-04-05T12:11:27;102143.31;;;15.08;45.97
52949;BME280;38812;50.942;3.644;2023-04-05T12:13:55;102140.34;;;15.23;45.51
52949;BME280;38812;50.942;3.644;2023-04-05T12:16:20;102136.69;;;15.30;46.64
52949;BME280;38812;50.942;3.644;2023-04-05T12:18:52;102141.75;;;14.96;45.58
52949;BME280;38812;50.942;3.644;2023-04-05T12:21:18;102132.66;;;14.65;44.69
52949;BME280;38812;50.942;3.644;2023-04-05T12:23:44;102131.88;;;14.57;43.92
52949;BME280;38812;50.942;3.644;2023-04-05T12:26:09;102126.44;;;15.15;48.02
52949;BME280;38812;50.942;3.644;2023-04-05T12:28:57;102127.50;;;15.03;45.45
52949;BME280;38812;50.942;3.644;2023-04-05T12:31:42;102119.72;;;15.39;45.00
52949;BME280;38812;50.942;3.644;2023-04-05T12:34:09;102124.38;;;15.28;44.97
52949;BME280;38812;50.942;3.644;2023-04-05T12:36:35;102128.88;;;15.24;44.63
52949;BME280;38812;50.942;3.644;2023-04-05T12:39:05;102107.47;;;15.36;45.22
52949;BME280;38812;50.942;3.644;2023-04-05T12:41:31;102113.38;;;15.48;45.21
52949;BME280;38812;50.942;3.644;2023-04-05T12:43:57;102110.09;;;15.36;42.79
52949;BME280;38812;50.942;3.644;2023-04-05T12:46:42;102110.59;;;15.57;45.99
52949;BME280;38812;50.942;3.644;2023-04-05T12:49:14;102107.75;;;15.64;44.75
52949;BME280;38812;50.942;3.644;2023-04-05T12:51:41;102084.94;;;15.59;46.12
52949;BME280;38812;50.942;3.644;2023-04-05T12:54:20;102108.53;;;15.26;45.31
52949;BME280;38812;50.942;3.644;2023-04-05T12:56:49;102099.69;;;15.27;44.85
52949;BME280;38812;50.942;3.644;2023-04-05T12:59:17;102110.91;;;15.38;44.59
52949;BME280;38812;50.942;3.644;2023-04-05T13:01:42;102103.06;;;15.35;44.79
52949;BME280;38812;50.942;3.644;2023-04-05T13:04:07;102107.34;;;14.96;43.67
52949;BME280;38812;50.942;3.644;2023-04-05T13:06:33;102097.56;;;15.01;46.32
52949;BME280;38812;50.942;3.644;2023-04-05T13:08:58;102096.63;;;15.04;44.44
52949;BME280;38812;50.942;3.644;2023-04-05T13:11:24;102096.31;;;15.19;45.11
52949;BME280;38812;50.942;3.644;2023-04-05T13:13:49;102092.72;;;14.28;45.69
52949;BME280;38812;50.942;3.644;2023-04-05T13:16:15;102087.13;;;14.46;45.53
52949;BME280;38812;50.942;3.644;2023-04-05T13:18:41;102076.59;;;14.92;47.39